createdAt,value
2019-02-23T00:00:33.451Z,2.75
2019-02-23T00:05:36.723Z,3.05
2019-02-23T00:10:40.149Z,3.02
2019-02-23T00:15:43.556Z,3.12
2019-02-23T00:20:46.889Z,2.90
2019-02-23T00:25:50.172Z,3.27
2019-02-23T00:30:53.536Z,3.05
2019-02-23T00:35:57.082Z,3.12
2019-02-23T00:41:01.651Z,3.17
2019-02-23T00:46:05.053Z,2.83
2019-02-23T00:51:08.569Z,3.15
2019-02-23T00:56:11.849Z,2.87
2019-02-23T01:01:15.281Z,3.20
2019-02-23T01:06:18.565Z,3.00
2019-02-23T01:11:22.009Z,2.85
2019-02-23T01:16:25.420Z,3.17
2019-02-23T01:21:28.832Z,3.10
2019-02-23T01:26:32.258Z,3.10
2019-02-23T01:31:35.600Z,3.02
2019-02-23T01:36:39.874Z,3.10
2019-02-23T01:41:43.311Z,3.17
2019-02-23T01:46:47.168Z,2.80
2019-02-23T01:51:50.575Z,2.50
2019-02-23T01:56:53.966Z,3.20
2019-02-23T02:01:57.376Z,3.00
2019-02-23T02:07:00.795Z,3.15
2019-02-23T02:12:08.152Z,2.60
2019-02-23T02:17:12.017Z,2.50
2019-02-23T02:22:15.302Z,3.20
2019-02-23T02:27:18.758Z,2.75
2019-02-23T02:32:22.134Z,3.00
2019-02-23T02:37:26.922Z,3.10
2019-02-23T02:42:30.377Z,2.80
2019-02-23T02:47:34.862Z,3.00
2019-02-23T02:52:38.954Z,2.75
2019-02-23T02:57:42.403Z,3.05
2019-02-23T03:02:45.818Z,2.85
2019-02-23T03:07:49.238Z,2.60
2019-02-23T03:12:53.556Z,2.60
2019-02-23T03:17:58.617Z,2.92
2019-02-23T03:23:01.907Z,2.85
2019-02-23T03:28:06.881Z,2.70
2019-02-23T03:33:10.176Z,2.90
2019-02-23T03:38:13.723Z,2.60
2019-02-23T03:43:17.605Z,2.77
2019-02-23T03:48:21.059Z,2.70
2019-02-23T03:53:24.341Z,2.77
2019-02-23T03:58:27.773Z,2.55
2019-02-23T04:03:31.202Z,2.95
2019-02-23T04:08:34.702Z,2.80
2019-02-23T04:13:38.119Z,2.50
2019-02-23T04:18:42.539Z,2.90
2019-02-23T04:23:46.071Z,2.80
2019-02-23T04:28:49.538Z,2.95
2019-02-23T04:33:52.985Z,3.00
2019-02-23T04:38:56.413Z,2.90
2019-02-23T04:44:00.382Z,2.45
2019-02-23T04:49:03.735Z,2.55
2019-02-23T04:54:07.169Z,2.35
2019-02-23T04:59:10.451Z,2.83
2019-02-23T05:04:14.917Z,2.40
2019-02-23T05:09:20.085Z,2.70
2019-02-23T05:14:23.491Z,2.77
2019-02-23T05:19:26.901Z,2.90
2019-02-23T05:24:30.187Z,2.67
2019-02-23T05:29:33.624Z,2.62
2019-02-23T05:34:38.189Z,2.85
2019-02-23T05:39:41.648Z,2.40
2019-02-23T05:44:45.043Z,3.22
2019-02-23T05:49:50.989Z,2.90
2019-02-23T05:54:54.485Z,2.60
2019-02-23T05:59:57.777Z,2.98
2019-02-23T06:05:01.415Z,2.77
2019-02-23T06:10:07.633Z,3.00
2019-02-23T06:15:12.402Z,2.80
2019-02-23T06:20:16.327Z,2.70
2019-02-23T06:25:19.709Z,2.75
2019-02-23T06:30:22.999Z,2.50
2019-02-23T06:35:28.042Z,3.00
2019-02-23T06:40:32.411Z,3.10
2019-02-23T06:45:37.289Z,2.95
2019-02-23T06:50:40.661Z,3.00
2019-02-23T06:55:43.950Z,3.20
2019-02-23T07:00:49.030Z,2.72
2019-02-23T07:05:52.856Z,2.70
2019-02-23T07:10:56.143Z,2.92
2019-02-23T07:16:00.199Z,2.65
2019-02-23T07:21:04.078Z,2.85
2019-02-23T07:26:07.462Z,2.85
2019-02-23T07:31:11.837Z,2.80
2019-02-23T07:36:16.889Z,2.80
2019-02-23T07:41:20.456Z,3.02
2019-02-23T07:46:23.853Z,2.58
2019-02-23T07:51:27.253Z,3.17
2019-02-23T07:56:30.650Z,3.55
2019-02-23T08:01:34.066Z,2.80
2019-02-23T08:06:37.384Z,2.98
2019-02-23T08:11:41.953Z,3.00
2019-02-23T08:16:46.024Z,2.65
2019-02-23T08:21:49.309Z,3.33
2019-02-23T08:26:53.233Z,2.72
2019-02-23T08:31:56.942Z,3.20
2019-02-23T08:37:00.645Z,3.20
2019-02-23T08:42:03.929Z,2.95
2019-02-23T08:47:07.497Z,3.10
2019-02-23T08:52:12.423Z,2.87
2019-02-23T08:57:15.781Z,2.70
2019-02-23T09:02:19.090Z,3.70
2019-02-23T09:07:22.428Z,3.52
2019-02-23T09:12:25.707Z,3.00
2019-02-23T09:17:29.728Z,2.77
2019-02-23T09:22:33.125Z,2.30
2019-02-23T09:27:37.744Z,2.27
2019-02-23T09:32:41.254Z,2.22
2019-02-23T09:37:44.708Z,2.60
2019-02-23T09:42:48.120Z,2.92
2019-02-23T09:47:53.717Z,3.58
2019-02-23T09:52:57.068Z,3.62
2019-02-23T09:58:00.357Z,4.37
2019-02-23T10:03:04.677Z,3.90
2019-02-23T10:08:08.112Z,4.00
2019-02-23T10:13:11.945Z,3.85
2019-02-23T10:18:16.069Z,4.42
2019-02-23T10:23:22.176Z,4.92
2019-02-23T10:28:24.532Z,4.83
2019-02-23T10:33:27.954Z,3.77
2019-02-23T10:38:31.241Z,3.87
2019-02-23T10:43:34.543Z,3.95
2019-02-23T10:48:37.824Z,4.28
2019-02-23T10:53:41.243Z,3.35
2019-02-23T10:58:45.994Z,3.92
2019-02-23T11:03:49.335Z,3.52
2019-02-23T11:08:53.382Z,3.12
2019-02-23T11:13:56.807Z,3.45
2019-02-23T11:19:00.088Z,3.50
2019-02-23T11:24:03.471Z,3.17
2019-02-23T11:29:06.829Z,3.17
2019-02-23T11:34:10.152Z,3.08
2019-02-23T11:39:13.823Z,3.50
2019-02-23T11:44:17.284Z,3.40
2019-02-23T11:49:20.566Z,3.10
2019-02-23T11:54:23.935Z,3.15
2019-02-23T11:59:27.536Z,3.70
2019-02-23T12:04:30.890Z,3.40
2019-02-23T12:09:34.354Z,3.77
2019-02-23T12:14:37.878Z,4.30
2019-02-23T12:19:41.432Z,4.17
2019-02-23T12:24:44.709Z,3.83
2019-02-23T12:29:47.988Z,3.67
2019-02-23T12:34:51.267Z,4.05
2019-02-23T12:39:54.552Z,3.75
2019-02-23T12:44:58.029Z,3.72
2019-02-23T12:50:01.453Z,4.03
2019-02-23T12:55:06.786Z,4.10
2019-02-23T13:00:15.656Z,4.33
2019-02-23T13:05:19.118Z,4.40
2019-02-23T13:10:22.404Z,3.77
2019-02-23T13:15:34.811Z,4.08
2019-02-23T13:20:52.869Z,4.25
2019-02-23T13:26:32.637Z,4.30
2019-02-23T13:31:42.500Z,4.47
2019-02-23T13:36:49.057Z,4.47
2019-02-23T13:42:12.159Z,3.95
2019-02-23T13:47:24.137Z,3.98
2019-02-23T13:52:54.845Z,4.67
2019-02-23T13:58:25.375Z,4.15
2019-02-23T14:03:31.929Z,4.12
2019-02-23T14:08:57.269Z,4.58
2019-02-23T14:14:09.629Z,4.95
2019-02-23T14:19:25.059Z,4.95
2019-02-23T14:24:49.520Z,4.08
2019-02-23T14:30:02.178Z,4.15
2019-02-23T14:35:17.489Z,4.83
2019-02-23T14:40:24.037Z,4.67
2019-02-23T14:45:42.734Z,4.30
2019-02-23T14:51:19.960Z,6.92
2019-02-23T14:56:32.570Z,5.95
2019-02-23T15:01:39.113Z,5.90
2019-02-23T15:07:05.042Z,5.83
2019-02-23T15:12:28.655Z,6.00
2019-02-23T15:17:38.261Z,6.33
2019-02-23T15:23:08.997Z,6.45
2019-02-23T15:28:39.629Z,7.67
2019-02-23T15:34:00.454Z,12.45
2019-02-23T15:39:23.215Z,13.43
2019-02-23T15:45:03.401Z,13.95
2019-02-23T15:50:13.102Z,11.78
2019-02-23T15:55:25.573Z,16.25
2019-02-23T16:00:21.883Z,14.07
2019-02-23T16:05:26.205Z,14.60
2019-02-23T16:10:29.968Z,14.58
2019-02-23T16:15:33.778Z,17.73
2019-02-23T16:20:39.363Z,14.30
2019-02-23T16:25:49.362Z,12.82
2019-02-23T16:30:56.803Z,12.65
2019-02-23T16:36:07.588Z,13.78
2019-02-23T16:41:12.349Z,14.15
2019-02-23T16:46:15.776Z,15.28
2019-02-23T16:51:24.544Z,13.20
2019-02-23T16:56:29.995Z,16.42
2019-02-23T17:01:53.173Z,17.40
2019-02-23T17:07:00.932Z,19.20
2019-02-23T17:12:04.744Z,14.43
2019-02-23T17:17:12.829Z,15.55
2019-02-23T17:22:18.517Z,18.23
2019-02-23T17:27:35.504Z,17.85
2019-02-23T17:32:28.796Z,16.65
2019-02-23T17:37:35.185Z,15.75
2019-02-23T17:42:40.437Z,15.72
2019-02-23T18:14:25.480Z,16.57
2019-02-23T18:24:58.662Z,17.70
2019-02-23T18:30:11.423Z,18.07
2019-02-23T18:40:48.245Z,18.00
2019-02-23T18:51:16.251Z,22.67
2019-02-23T19:01:56.197Z,21.20
2019-02-23T19:06:59.047Z,23.18
2019-02-23T19:12:05.951Z,24.72
2019-02-23T19:17:24.469Z,23.25
2019-02-23T19:22:33.584Z,25.17
2019-02-23T19:32:55.454Z,24.02
2019-02-23T19:38:01.275Z,22.95
2019-02-23T19:43:10.242Z,21.60
2019-02-23T19:48:16.536Z,22.13
2019-02-23T19:53:21.212Z,22.00
2019-02-23T19:58:28.714Z,19.90
2019-02-23T20:20:15.201Z,22.32
2019-02-23T20:25:31.120Z,22.60
2019-02-23T20:30:43.203Z,25.57
2019-02-23T20:35:57.768Z,24.72
2019-02-23T21:08:43.992Z,24.35
2019-02-23T21:13:51.918Z,23.32
2019-02-23T21:19:06.277Z,22.87
2019-02-23T21:29:22.951Z,22.58
2019-02-23T21:34:33.218Z,22.45
2019-02-23T21:45:26.107Z,20.15
2019-02-23T21:50:37.493Z,26.10
2019-02-23T21:56:00.999Z,19.55
2019-02-23T22:01:07.374Z,20.30
2019-02-23T22:06:13.843Z,17.17
2019-02-23T22:11:30.984Z,19.95
2019-02-23T22:16:35.900Z,24.52
2019-02-23T22:27:07.276Z,22.70
2019-02-23T22:37:25.856Z,21.33
2019-02-23T22:42:33.461Z,20.32
2019-02-23T22:47:42.829Z,21.93
2019-02-23T22:52:55.201Z,21.73
2019-02-23T22:58:01.267Z,20.08
2019-02-23T23:03:20.485Z,19.50
2019-02-23T23:08:33.175Z,19.13
2019-02-23T23:13:40.071Z,20.62
2019-02-23T23:18:46.037Z,20.60
2019-02-23T23:23:55.837Z,20.72
2019-02-23T23:29:01.679Z,19.62
2019-02-23T23:34:05.193Z,19.92
2019-02-23T23:39:10.739Z,23.15
2019-02-23T23:44:16.293Z,17.62
2019-02-23T23:49:22.888Z,17.20
2019-02-23T23:54:27.592Z,16.05
2019-02-23T23:59:35.631Z,16.62
